Terminal Aerodrome Forecast
Issued by NWS

Current Version | Previous Version | Text Only | Print | Product List | Glossary Off
Versions: 1 2 3 4 5 6 7 8 9 10 11 12 13 14

000
FTUS41 KALY 291130
TAFPSF
TAF
KPSF 291130Z 2912/3012 VRB03KT P6SM FEW250
     FM291400 22008KT P6SM SCT050
     FM300100 28003KT P6SM SCT080=

USA.gov is the U.S. government's official web portal to all federal, state and local government web resources and services.